Time;durP1;ratioP1;P1;durP2;ratioP2;P2;SDS_P1;SDS_P2;PMS_P1;PMS_P2;Temp;Humidity;BMP_temperature;BMP_pressure;BME280_temperature;BME280_humidity;BME280_pressure;Samples;Min_cycle;Max_cycle;Signal;HPM_P1;HPM_P2
2023/04/20 00:00:53;;;;;;;;;10.00;10.00;;;;;14.37;36.46;100926.91;5074943;28;46168;-81
2023/04/20 00:03:20;;;;;;;;;9.25;9.00;;;;;14.27;36.54;100918.88;5075098;28;45710;-80
2023/04/20 00:05:48;;;;;;;;;10.00;10.00;;;;;14.20;36.51;100915.91;5074933;28;45859;-77
2023/04/20 00:08:13;;;;;;;;;8.50;6.25;;;;;14.11;36.58;100914.03;5073786;28;45757;-82
2023/04/20 00:10:39;;;;;;;;;10.50;9.25;;;;;14.08;36.98;100911.66;5074816;28;46514;-81
2023/04/20 00:16:26;;;;;;;;;11.00;10.75;;;;;13.93;36.99;100912.84;5074365;28;45876;-76
2023/04/20 00:18:51;;;;;;;;;9.00;9.00;;;;;13.87;36.94;100903.66;5074628;28;45557;-80
2023/04/20 00:21:20;;;;;;;;;9.75;8.75;;;;;13.83;37.03;100917.19;5074057;28;46430;-82
2023/04/20 00:23:46;;;;;;;;;10.75;10.00;;;;;13.77;37.29;100899.22;5055752;28;47321;-80
2023/04/20 00:26:11;;;;;;;;;12.00;10.00;;;;;13.70;37.32;100904.19;5074373;28;45569;-77
2023/04/20 00:28:37;;;;;;;;;11.25;10.00;;;;;13.64;37.23;100906.44;5074535;28;45736;-80
2023/04/20 00:31:02;;;;;;;;;11.25;9.00;;;;;13.63;37.27;100905.63;5074027;28;45500;-82
2023/04/20 00:33:28;;;;;;;;;14.00;10.25;;;;;13.57;37.05;100892.09;5074014;28;46337;-81
2023/04/20 00:35:53;;;;;;;;;10.25;9.50;;;;;13.50;37.24;100904.03;5074110;28;45659;-84
2023/04/20 00:38:18;;;;;;;;;8.75;8.00;;;;;13.46;37.21;100898.19;5074221;28;45875;-80
2023/04/20 00:40:47;;;;;;;;;10.50;10.00;;;;;13.42;37.55;100896.78;5074116;28;45528;-83
2023/04/20 00:46:34;;;;;;;;;11.00;10.00;;;;;13.34;38.03;100881.56;5073925;27;45669;-79
2023/04/20 00:49:00;;;;;;;;;8.00;8.00;;;;;13.35;37.98;100883.25;5078244;28;45791;-80
2023/04/20 00:51:26;;;;;;;;;8.00;8.00;;;;;13.36;37.78;100878.81;5074999;28;45569;-79
2023/04/20 00:53:52;;;;;;;;;12.50;10.25;;;;;13.34;37.64;100891.25;5074264;28;46116;-80
2023/04/20 00:56:18;;;;;;;;;11.50;10.25;;;;;13.28;37.96;100874.16;5074422;28;45604;-80
2023/04/20 01:02:05;;;;;;;;;9.00;8.50;;;;;13.19;37.80;100869.59;5073748;28;46094;-79
2023/04/20 01:04:31;;;;;;;;;8.00;7.00;;;;;13.16;37.95;100879.53;5073995;28;45666;-78
2023/04/20 01:06:56;;;;;;;;;9.75;9.00;;;;;13.13;38.43;100871.88;5073883;28;45521;-80
2023/04/20 01:09:21;;;;;;;;;12.25;9.00;;;;;13.06;38.09;100871.50;5074133;28;45563;-79
2023/04/20 01:11:47;;;;;;;;;10.50;9.25;;;;;13.01;38.05;100871.00;5073360;28;45629;-80
2023/04/20 01:14:12;;;;;;;;;9.75;9.00;;;;;12.97;38.56;100869.56;5073689;28;45734;-79
2023/04/20 01:16:38;;;;;;;;;8.50;8.00;;;;;12.95;38.90;100866.22;5075441;27;45591;-82
2023/04/20 01:19:03;;;;;;;;;10.25;8.75;;;;;12.96;38.90;100871.34;5077417;28;45557;-78
2023/04/20 01:21:29;;;;;;;;;11.00;10.00;;;;;12.92;38.58;100866.44;5075386;28;48546;-80
2023/04/20 01:23:55;;;;;;;;;8.50;7.75;;;;;12.92;38.86;100864.66;5077136;28;45691;-77
2023/04/20 01:26:23;;;;;;;;;8.00;8.00;;;;;12.91;38.76;100868.22;5077595;28;45744;-80
2023/04/20 01:32:10;;;;;;;;;14.75;10.50;;;;;12.76;39.12;100861.53;5080866;28;45971;-81
2023/04/20 01:34:36;;;;;;;;;9.75;9.50;;;;;12.71;38.90;100861.03;5079010;28;46594;-81
2023/04/20 01:37:06;;;;;;;;;10.75;10.00;;;;;12.66;39.07;100844.78;5077963;28;45451;-83
2023/04/20 01:39:36;;;;;;;;;10.25;10.00;;;;;12.58;39.33;100847.97;5077281;28;45781;-80
2023/04/20 01:42:02;;;;;;;;;13.50;9.00;;;;;12.52;39.51;100827.41;5077046;28;46479;-81
2023/04/20 01:47:49;;;;;;;;;12.25;8.25;;;;;12.49;39.70;100846.06;5074608;27;45680;-76
2023/04/20 01:50:14;;;;;;;;;10.00;10.00;;;;;12.47;39.76;100842.69;5077299;28;45704;-78
2023/04/20 01:52:40;;;;;;;;;10.00;9.00;;;;;12.44;39.55;100834.22;5076762;28;45635;-81
2023/04/20 01:55:06;;;;;;;;;10.00;8.50;;;;;12.42;39.52;100836.94;5076905;28;45681;-76
2023/04/20 01:57:31;;;;;;;;;10.00;10.00;;;;;12.38;39.65;100830.25;5077087;28;45845;-78
2023/04/20 01:59:56;;;;;;;;;9.50;9.25;;;;;12.36;40.00;100828.72;5076845;28;45870;-80
2023/04/20 02:02:22;;;;;;;;;10.00;7.25;;;;;12.36;39.95;100839.22;5076689;28;45509;-79
2023/04/20 02:04:47;;;;;;;;;9.00;8.00;;;;;12.34;39.89;100833.22;5076648;28;45977;-81
2023/04/20 02:07:12;;;;;;;;;9.00;8.25;;;;;12.32;39.88;100835.97;5076811;28;45587;-78
2023/04/20 02:09:38;;;;;;;;;9.00;9.00;;;;;12.26;39.85;100833.78;5075152;28;45913;-79
2023/04/20 02:12:04;;;;;;;;;8.00;7.25;;;;;12.22;40.05;100834.97;5076930;28;46303;-83
2023/04/20 02:17:51;;;;;;;;;7.25;7.25;;;;;12.16;40.41;100841.53;5076883;28;45755;-79
2023/04/20 02:20:20;;;;;;;;;9.00;8.00;;;;;12.15;39.88;100852.13;5076509;28;45715;-80
2023/04/20 02:22:46;;;;;;;;;1.50;0.00;;;;;12.10;40.47;100841.97;5057662;28;48889;-80
2023/04/20 02:25:11;;;;;;;;;11.50;8.25;;;;;12.06;40.48;100835.28;5076294;28;46402;-80
2023/04/20 02:27:37;;;;;;;;;9.50;8.00;;;;;12.03;40.41;100847.81;5074801;28;45821;-78
2023/04/20 02:33:24;;;;;;;;;8.00;7.50;;;;;11.95;40.68;100837.84;5075729;28;45629;-77
2023/04/20 02:35:49;;;;;;;;;7.00;6.75;;;;;11.91;40.60;100836.41;5075700;28;45660;-78
2023/04/20 02:38:15;;;;;;;;;6.00;6.00;;;;;11.89;40.63;100840.91;5076294;28;45500;-79
2023/04/20 02:40:40;;;;;;;;;7.00;6.75;;;;;11.87;40.72;100834.97;5074606;28;45419;-78
2023/04/20 02:43:06;;;;;;;;;7.50;6.00;;;;;11.88;40.68;100846.25;5076179;28;46257;-83
2023/04/20 02:45:31;;;;;;;;;8.50;7.50;;;;;11.86;40.80;100845.56;5076082;28;46292;-79
2023/04/20 02:47:57;;;;;;;;;6.50;4.00;;;;;11.78;40.88;100838.22;5076018;28;45838;-82
2023/04/20 02:50:23;;;;;;;;;7.50;7.00;;;;;11.76;40.78;100838.38;5076571;28;45723;-81
2023/04/20 02:52:48;;;;;;;;;6.50;6.00;;;;;11.73;40.91;100842.97;5057780;28;48471;-77
2023/04/20 02:55:14;;;;;;;;;7.00;6.00;;;;;11.72;40.90;100841.25;5077705;28;45717;-76
2023/04/20 02:57:39;;;;;;;;;8.50;7.00;;;;;11.74;40.92;100845.50;5077544;28;45647;-79
2023/04/20 03:03:27;;;;;;;;;7.00;6.00;;;;;11.69;41.08;100839.72;5078417;28;46161;-77
2023/04/20 03:05:54;;;;;;;;;6.25;5.50;;;;;11.68;41.20;100839.81;5087306;28;45873;-77
2023/04/20 03:08:20;;;;;;;;;6.75;6.00;;;;;11.64;40.98;100841.81;5083437;28;45632;-81
2023/04/20 03:10:45;;;;;;;;;7.00;5.50;;;;;11.66;40.92;100855.66;5079929;28;45834;-79
2023/04/20 03:13:10;;;;;;;;;6.00;6.00;;;;;11.63;41.09;100853.25;5076653;28;45721;-79
2023/04/20 03:18:58;;;;;;;;;4.50;4.00;;;;;11.62;41.30;100850.75;5075467;28;45620;-77
2023/04/20 03:21:23;;;;;;;;;8.50;7.75;;;;;11.62;41.26;100851.59;5073735;28;45695;-81
2023/04/20 03:23:49;;;;;;;;;6.00;6.00;;;;;11.59;40.97;100841.31;5075408;28;46396;-81
2023/04/20 03:26:14;;;;;;;;;6.00;6.00;;;;;11.60;40.96;100855.28;5075274;28;45836;-79
2023/04/20 03:28:41;;;;;;;;;4.00;4.00;;;;;11.58;40.95;100849.28;5075496;28;45645;-79
2023/04/20 03:31:06;;;;;;;;;4.00;3.25;;;;;11.56;40.96;100848.56;5075122;28;45732;-79
2023/04/20 03:33:31;;;;;;;;;7.00;6.00;;;;;11.49;41.17;100852.59;5075041;28;45785;-78
2023/04/20 03:35:57;;;;;;;;;6.00;6.00;;;;;11.48;41.14;100849.13;5075512;28;45713;-77
2023/04/20 03:38:22;;;;;;;;;7.75;6.25;;;;;11.46;41.11;100840.50;5075008;28;45676;-77
2023/04/20 03:40:48;;;;;;;;;4.00;3.00;;;;;11.45;41.28;100838.81;5056162;28;45718;-78
2023/04/20 03:43:13;;;;;;;;;8.25;7.00;;;;;11.47;41.21;100846.59;5056670;28;46907;-77
2023/04/20 03:49:00;;;;;;;;;6.50;5.00;;;;;11.45;41.01;100846.69;5072888;27;45696;-76
2023/04/20 03:51:26;;;;;;;;;4.25;4.25;;;;;11.43;41.23;100847.75;5074616;28;45807;-79
2023/04/20 03:53:51;;;;;;;;;4.00;4.00;;;;;11.40;41.16;100842.72;5074630;28;45697;-78
2023/04/20 03:56:17;;;;;;;;;7.00;6.00;;;;;11.39;41.24;100848.94;5074805;28;45784;-80
2023/04/20 03:58:42;;;;;;;;;4.00;4.00;;;;;11.39;41.12;100848.94;5074834;28;45564;-78
2023/04/20 04:04:29;;;;;;;;;6.50;3.00;;;;;11.34;41.18;100851.84;5074523;28;46079;-81
2023/04/20 04:06:54;;;;;;;;;7.00;6.00;;;;;11.29;41.22;100849.56;5074815;28;46097;-81
2023/04/20 04:09:20;;;;;;;;;6.00;4.00;;;;;11.29;41.35;100859.22;5074809;28;45764;-79
2023/04/20 04:11:45;;;;;;;;;6.75;6.00;;;;;11.27;41.54;100858.50;5075246;28;45687;-78
2023/04/20 04:14:11;;;;;;;;;5.50;3.25;;;;;11.21;41.24;100859.75;5075142;28;46571;-77
2023/04/20 04:19:58;;;;;;;;;6.00;6.00;;;;;11.13;41.46;100867.31;5074608;28;45856;-78
2023/04/20 04:22:23;;;;;;;;;4.00;4.00;;;;;11.09;41.24;100868.47;5075009;28;45641;-79
2023/04/20 04:24:48;;;;;;;;;4.75;4.75;;;;;11.03;41.14;100865.44;5073016;28;48099;-81
2023/04/20 04:27:14;;;;;;;;;3.50;3.50;;;;;10.99;41.41;100862.19;5073040;28;46992;-79
2023/04/20 04:29:40;;;;;;;;;8.25;6.00;;;;;11.02;41.48;100872.44;5074391;28;45809;-79
2023/04/20 04:32:06;;;;;;;;;5.25;5.25;;;;;11.04;41.32;100881.06;5074451;28;45718;-78
2023/04/20 04:34:33;;;;;;;;;5.00;3.75;;;;;11.02;41.14;100885.56;5074407;28;46408;-79
2023/04/20 04:37:00;;;;;;;;;6.00;4.25;;;;;10.98;41.19;100884.09;5074406;28;45541;-81
2023/04/20 04:39:26;;;;;;;;;6.00;5.75;;;;;10.98;41.17;100880.63;5074018;28;45958;-80
2023/04/20 04:41:52;;;;;;;;;5.00;4.25;;;;;10.94;41.24;100885.25;5074454;28;45496;-81
2023/04/20 04:44:18;;;;;;;;;7.00;6.00;;;;;10.89;41.21;100872.47;5074787;28;46429;-77
2023/04/20 04:50:06;;;;;;;;;6.50;5.50;;;;;10.90;41.09;100887.22;5073222;28;46295;-78
2023/04/20 04:52:34;;;;;;;;;6.50;6.50;;;;;10.87;41.08;100884.84;5075150;28;45593;-78
2023/04/20 04:55:00;;;;;;;;;7.00;7.00;;;;;10.83;40.93;100890.38;5075490;28;46517;-79
2023/04/20 04:57:26;;;;;;;;;7.00;5.75;;;;;10.80;41.13;100890.56;5075157;28;45690;-78
2023/04/20 04:59:52;;;;;;;;;6.00;3.00;;;;;10.78;41.01;100895.09;5072831;28;45798;-78
2023/04/20 05:02:17;;;;;;;;;7.00;6.00;;;;;10.76;41.11;100897.81;5074247;28;45862;-79
2023/04/20 05:04:42;;;;;;;;;6.25;4.25;;;;;10.73;41.16;100900.66;5073833;28;45655;-77
2023/04/20 05:07:10;;;;;;;;;4.50;4.25;;;;;10.78;41.39;100913.44;5075102;28;46037;-76
2023/04/20 05:09:36;;;;;;;;;8.50;6.75;;;;;10.76;41.25;100904.84;5074309;28;45839;-79
2023/04/20 05:12:02;;;;;;;;;6.25;6.00;;;;;10.78;41.18;100905.59;5074466;28;45585;-81
2023/04/20 05:14:30;;;;;;;;;6.00;5.00;;;;;10.77;41.15;100914.38;5074325;28;46658;-77
2023/04/20 05:20:18;;;;;;;;;8.75;7.50;;;;;10.70;40.75;100906.09;5073571;28;45716;-78
2023/04/20 05:22:43;;;;;;;;;7.00;5.50;;;;;10.67;40.71;100916.78;5072795;28;45728;-79
2023/04/20 05:25:10;;;;;;;;;6.50;4.75;;;;;10.61;40.66;100913.72;5074710;28;46703;-77
2023/04/20 05:27:36;;;;;;;;;8.00;6.50;;;;;10.57;40.85;100909.63;5073944;28;47523;-75
2023/04/20 05:30:01;;;;;;;;;9.25;8.00;;;;;10.60;40.84;100925.13;5073578;28;45727;-75
2023/04/20 05:35:56;;;;;;;;;8.00;6.00;;;;;10.58;41.03;100922.63;5073557;28;45717;-79
2023/04/20 05:38:21;;;;;;;;;7.75;7.00;;;;;10.57;40.93;100928.81;5073885;28;46104;-76
2023/04/20 05:40:47;;;;;;;;;8.50;7.25;;;;;10.55;40.95;100924.59;5073967;28;45596;-75
2023/04/20 05:43:12;;;;;;;;;6.75;6.00;;;;;10.51;41.19;100918.75;5074093;28;45654;-76
2023/04/20 05:45:38;;;;;;;;;6.25;6.25;;;;;10.52;41.29;100916.03;5073186;28;46257;-79
2023/04/20 05:48:03;;;;;;;;;7.00;6.00;;;;;10.49;41.19;100918.84;5073385;28;46031;-77
2023/04/20 05:50:29;;;;;;;;;8.00;7.00;;;;;10.46;41.20;100919.06;5073208;28;45615;-79
2023/04/20 05:52:55;;;;;;;;;8.00;7.00;;;;;10.46;41.14;100924.28;5073215;28;45786;-78
2023/04/20 05:55:20;;;;;;;;;7.00;6.50;;;;;10.40;41.16;100908.97;5073370;28;47002;-76
2023/04/20 05:57:45;;;;;;;;;9.00;6.50;;;;;10.44;41.10;100920.91;5073226;28;45780;-79
2023/04/20 06:00:14;;;;;;;;;6.50;6.00;;;;;10.42;41.13;100920.16;5073150;28;45642;-79
2023/04/20 06:06:01;;;;;;;;;8.00;7.00;;;;;10.41;41.37;100923.75;5076643;28;45666;-80
2023/04/20 06:08:26;;;;;;;;;8.50;7.75;;;;;10.42;41.27;100921.94;5075296;28;46926;-77
2023/04/20 06:10:56;;;;;;;;;7.00;7.00;;;;;10.39;41.31;100916.91;5076368;28;45589;-78
2023/04/20 06:13:21;;;;;;;;;8.00;7.00;;;;;10.39;41.27;100922.16;5076952;28;45705;-78
2023/04/20 06:22:30;;;;;;;;;9.00;7.50;;;;;10.40;41.58;100916.81;5076222;28;45978;-75
2023/04/20 06:24:57;;;;;;;;;9.00;9.00;;;;;10.43;41.58;100921.84;5076509;28;45656;-74
2023/04/20 06:27:23;;;;;;;;;7.75;7.00;;;;;10.44;41.61;100915.69;5076265;28;45512;-76
2023/04/20 06:29:49;;;;;;;;;7.25;7.00;;;;;10.46;41.27;100913.81;5076033;28;45857;-76
2023/04/20 06:32:15;;;;;;;;;8.00;6.50;;;;;10.51;41.17;100918.75;5075817;28;45636;-74
2023/04/20 06:34:40;;;;;;;;;8.25;8.00;;;;;10.51;41.05;100913.50;5076414;28;45529;-77
2023/04/20 06:37:06;;;;;;;;;9.50;8.00;;;;;10.54;41.22;100929.00;5076095;28;46458;-72
2023/04/20 06:39:31;;;;;;;;;8.50;8.00;;;;;10.55;41.34;100920.22;5075758;28;46237;-73
2023/04/20 06:41:58;;;;;;;;;8.00;7.75;;;;;10.57;41.44;100920.13;5057514;28;45665;-74
2023/04/20 06:44:23;;;;;;;;;8.00;7.75;;;;;10.56;41.19;100928.91;5076110;28;45730;-75
2023/04/20 06:46:49;;;;;;;;;13.00;9.00;;;;;10.55;41.20;100928.06;5075933;28;45694;-77
2023/04/20 06:49:14;;;;;;;;;11.00;9.25;;;;;10.53;41.33;100919.47;5075542;28;45713;-77
2023/04/20 06:51:40;;;;;;;;;8.50;7.75;;;;;10.53;41.32;100920.31;5075405;28;45761;-75
2023/04/20 06:54:05;;;;;;;;;10.00;7.25;;;;;10.52;41.34;100918.66;5076110;28;45662;-75
2023/04/20 06:56:30;;;;;;;;;10.75;9.75;;;;;10.56;41.59;100927.13;5075838;28;45705;-76
2023/04/20 06:58:56;;;;;;;;;8.50;8.50;;;;;10.58;41.39;100927.84;5075675;28;46095;-74
2023/04/20 07:01:21;;;;;;;;;8.50;8.25;;;;;10.58;41.35;100929.66;5074324;28;45735;-74
2023/04/20 07:03:47;;;;;;;;;8.75;8.50;;;;;10.59;41.39;100923.47;5075886;28;45680;-74
2023/04/20 07:06:12;;;;;;;;;7.50;4.25;;;;;10.58;41.42;100920.00;5075426;28;46446;-78
2023/04/20 07:08:39;;;;;;;;;7.00;7.00;;;;;10.52;41.52;100923.88;5075582;28;46119;-76
2023/04/20 07:11:04;;;;;;;;;10.50;10.50;;;;;10.54;41.49;100923.75;5075155;28;45869;-76
2023/04/20 07:13:30;;;;;;;;;10.50;9.75;;;;;10.53;41.41;100932.56;5075122;28;45524;-77
2023/04/20 07:15:56;;;;;;;;;11.25;10.00;;;;;10.50;41.23;100941.47;5075031;28;46662;-78
2023/04/20 07:21:43;;;;;;;;;8.25;7.50;;;;;10.49;41.90;100931.09;5075336;28;45835;-78
2023/04/20 07:24:08;;;;;;;;;10.50;9.00;;;;;10.47;42.04;100922.50;5075349;28;45839;-77
2023/04/20 07:26:34;;;;;;;;;11.00;10.75;;;;;10.47;42.01;100930.38;5075537;28;45507;-74
2023/04/20 07:28:59;;;;;;;;;12.00;9.25;;;;;10.47;42.20;100925.94;5074934;28;45466;-78
2023/04/20 07:31:25;;;;;;;;;9.25;8.00;;;;;10.48;42.13;100919.75;5074917;28;45967;-74
2023/04/20 07:37:11;;;;;;;;;8.50;8.50;;;;;10.52;42.04;100926.50;5075196;28;45998;-75
2023/04/20 07:39:37;;;;;;;;;13.50;11.50;;;;;10.55;42.10;100914.13;5074930;28;46103;-78
2023/04/20 07:42:03;;;;;;;;;12.00;10.00;;;;;10.57;41.97;100915.72;5074790;28;45671;-74
2023/04/20 07:44:29;;;;;;;;;7.25;7.00;;;;;10.61;42.14;100921.59;5075034;28;45525;-77
2023/04/20 07:46:56;;;;;;;;;12.00;11.00;;;;;10.63;42.11;100917.94;5073383;28;47724;-76
2023/04/20 07:49:21;;;;;;;;;12.50;12.00;;;;;10.66;42.04;100928.19;5074551;28;46220;-77
2023/04/20 07:51:47;;;;;;;;;12.75;11.00;;;;;10.70;42.23;100918.34;5074540;28;45540;-74
2023/04/20 07:54:12;;;;;;;;;12.50;11.75;;;;;10.72;41.90;100911.22;5074979;28;45428;-76
2023/04/20 07:56:37;;;;;;;;;12.25;11.25;;;;;10.75;41.80;100911.00;5074900;28;45659;-75
2023/04/20 07:59:03;;;;;;;;;13.00;11.50;;;;;10.76;42.04;100915.31;5074720;28;45663;-76
2023/04/20 08:01:28;;;;;;;;;11.75;10.50;;;;;10.76;41.99;100913.53;5074774;28;45655;-78
2023/04/20 08:07:29;;;;;;;;;15.75;12.00;;;;;10.82;41.88;100901.81;5074550;28;45936;-79
2023/04/20 08:09:55;;;;;;;;;13.25;12.00;;;;;10.87;41.85;100911.03;5074471;28;45553;-73
2023/04/20 08:12:21;;;;;;;;;14.25;12.75;;;;;10.89;41.95;100905.69;5074596;28;45767;-73
2023/04/20 08:14:46;;;;;;;;;13.50;12.50;;;;;10.94;41.64;100903.63;5056320;28;45694;-79
2023/04/20 08:17:11;;;;;;;;;12.75;12.50;;;;;10.96;41.71;100903.50;5056052;28;47323;-77
2023/04/20 08:19:37;;;;;;;;;12.25;12.00;;;;;10.99;41.55;100898.06;5056017;28;47271;-78
2023/04/20 08:22:04;;;;;;;;;14.00;13.00;;;;;11.03;41.58;100904.75;5074512;28;45527;-79
2023/04/20 08:24:30;;;;;;;;;12.75;12.50;;;;;11.03;41.42;100892.50;5074723;28;45724;-73
2023/04/20 08:26:55;;;;;;;;;15.50;13.75;;;;;11.07;41.20;100883.47;5055918;28;46875;-77
2023/04/20 08:29:20;;;;;;;;;12.25;11.25;;;;;11.09;41.21;100889.44;5074110;28;47333;-77
2023/04/20 08:31:46;;;;;;;;;12.75;11.50;;;;;11.11;41.17;100884.94;5074316;28;45554;-76
2023/04/20 08:37:33;;;;;;;;;12.00;11.25;;;;;11.22;41.06;100884.22;5074135;28;45545;-76
2023/04/20 08:39:58;;;;;;;;;13.00;11.75;;;;;11.26;41.22;100877.78;5072477;28;48744;-78
2023/04/20 08:42:24;;;;;;;;;17.25;14.00;;;;;11.33;41.39;100871.19;5074054;28;45527;-76
2023/04/20 08:44:51;;;;;;;;;14.75;13.50;;;;;11.42;41.21;100881.03;5074912;28;45494;-80
2023/04/20 08:50:40;;;;;;;;;14.75;14.00;;;;;11.52;40.73;100878.59;5072539;27;46016;-79
2023/04/20 08:53:05;;;;;;;;;13.25;12.75;;;;;11.59;40.59;100875.44;5073949;28;45545;-79
2023/04/20 08:55:31;;;;;;;;;16.25;14.00;;;;;11.66;40.36;100881.09;5074455;28;45705;-78
2023/04/20 08:57:56;;;;;;;;;14.75;14.00;;;;;11.69;39.67;100868.56;5074225;28;45803;-78
2023/04/20 09:00:22;;;;;;;;;14.00;13.50;;;;;11.70;39.21;100870.25;5073554;28;45944;-77
2023/04/20 09:06:17;;;;;;;;;13.00;11.75;;;;;11.81;39.19;100866.06;5073999;28;45470;-76
2023/04/20 09:08:44;;;;;;;;;13.25;12.50;;;;;11.87;38.67;100870.88;5072276;28;47807;-80
2023/04/20 09:11:26;;;;;;;;;13.50;13.00;;;;;11.87;38.90;100861.22;5073780;28;45959;-77
2023/04/20 09:13:58;;;;;;;;;7.00;7.00;;;;;11.90;38.07;100854.88;5073904;28;45806;-79
2023/04/20 09:16:23;;;;;;;;;14.25;13.75;;;;;11.89;38.08;100840.91;5072289;28;45764;-79
2023/04/20 09:22:11;;;;;;;;;15.00;13.00;;;;;11.95;38.37;100843.09;5073489;28;45702;-75
2023/04/20 09:24:38;;;;;;;;;12.00;9.50;;;;;11.98;38.19;100834.16;5073833;28;45825;-76
2023/04/20 09:27:17;;;;;;;;;13.50;13.50;;;;;12.02;38.39;100828.56;5073678;28;45857;-78
2023/04/20 09:29:43;;;;;;;;;13.00;12.00;;;;;12.07;38.27;100836.13;5073467;28;45717;-76
2023/04/20 09:32:23;;;;;;;;;8.00;8.00;;;;;12.13;38.03;100825.16;5073536;28;46308;-77
2023/04/20 09:38:14;;;;;;;;;11.50;9.75;;;;;12.23;37.87;100827.94;5075785;28;45728;-77
2023/04/20 09:40:40;;;;;;;;;12.00;12.00;;;;;12.27;38.09;100832.00;5076799;28;45973;-75
2023/04/20 09:43:12;;;;;;;;;12.00;10.00;;;;;12.32;37.69;100817.56;5058428;28;45712;-75
2023/04/20 09:45:38;;;;;;;;;11.75;10.00;;;;;12.34;37.06;100814.84;5077055;28;45804;-73
2023/04/20 09:48:06;;;;;;;;;7.75;7.00;;;;;12.33;37.40;100808.75;5075860;28;46039;-75
2023/04/20 09:50:35;;;;;;;;;13.25;10.50;;;;;12.41;37.25;100803.75;5057954;28;46476;-73
2023/04/20 09:53:01;;;;;;;;;11.50;9.50;;;;;12.47;37.09;100795.38;5076792;28;45454;-74
2023/04/20 09:55:29;;;;;;;;;10.75;10.50;;;;;12.50;37.34;100784.66;5075194;28;45751;-75
2023/04/20 09:57:55;;;;;;;;;10.50;9.50;;;;;12.58;37.63;100782.25;5076983;28;45765;-74
2023/04/20 10:00:21;;;;;;;;;15.00;10.00;;;;;12.63;37.12;100795.88;5076288;28;45617;-75
2023/04/20 10:02:47;;;;;;;;;7.75;4.00;;;;;12.67;37.55;100799.16;5076716;28;45879;-76
2023/04/20 10:08:41;;;;;;;;;9.75;9.75;;;;;12.67;37.63;100811.44;5076485;28;45564;-75
2023/04/20 10:11:06;;;;;;;;;11.00;10.00;;;;;12.68;38.16;100789.47;5076538;28;45493;-76
2023/04/20 10:13:32;;;;;;;;;9.75;9.50;;;;;12.72;38.34;100796.16;5076288;28;46572;-76
2023/04/20 10:15:58;;;;;;;;;13.25;12.00;;;;;12.74;38.20;100789.00;5076450;28;45671;-76
2023/04/20 10:18:23;;;;;;;;;11.25;10.50;;;;;12.81;38.66;100779.66;5076640;28;45726;-79
2023/04/20 10:20:50;;;;;;;;;11.75;10.00;;;;;12.91;38.53;100786.72;5076138;28;45747;-77
2023/04/20 10:23:17;;;;;;;;;11.25;10.50;;;;;12.91;38.33;100777.97;5076613;28;46055;-76
2023/04/20 10:25:54;;;;;;;;;13.00;11.00;;;;;13.01;38.50;100790.28;5074770;28;45698;-77
2023/04/20 10:28:20;;;;;;;;;14.50;11.00;;;;;13.08;38.40;100779.28;5076623;28;45963;-74
2023/04/20 10:30:51;;;;;;;;;10.25;9.00;;;;;13.08;38.58;100776.66;5075936;28;46249;-75
2023/04/20 10:33:17;;;;;;;;;14.00;11.00;;;;;13.13;38.15;100793.78;5076407;28;46257;-76
2023/04/20 10:39:19;;;;;;;;;12.25;9.75;;;;;13.03;38.17;100775.25;5075880;28;45604;-76
2023/04/20 10:42:00;;;;;;;;;10.00;9.75;;;;;13.02;38.33;100770.94;5076067;28;45585;-79
2023/04/20 10:44:25;;;;;;;;;8.75;8.75;;;;;13.04;38.27;100753.25;5076329;28;46234;-79
2023/04/20 10:46:51;;;;;;;;;11.75;11.00;;;;;13.02;38.75;100763.03;5057653;28;45683;-79
2023/04/20 10:49:17;;;;;;;;;8.50;8.25;;;;;13.03;38.26;100761.25;5074659;28;45542;-81
2023/04/20 10:51:50;;;;;;;;;13.00;10.75;;;;;12.99;38.66;100773.81;5075549;28;45628;-78
2023/04/20 10:54:16;;;;;;;;;11.25;9.25;;;;;12.98;38.80;100763.41;5076358;28;46296;-78
2023/04/20 10:56:43;;;;;;;;;10.50;10.00;;;;;12.99;38.94;100754.56;5076056;28;45647;-80
2023/04/20 10:59:10;;;;;;;;;10.75;9.75;;;;;13.03;38.94;100753.38;5076032;28;45709;-77
2023/04/20 11:01:35;;;;;;;;;15.75;12.00;;;;;13.08;38.89;100756.47;5076099;28;46445;-76
2023/04/20 11:04:01;;;;;;;;;12.25;12.00;;;;;13.15;38.74;100770.84;5076201;28;46414;-76
2023/04/20 11:06:27;;;;;;;;;13.25;12.25;;;;;13.16;38.69;100748.00;5076127;28;45477;-78
2023/04/20 11:08:52;;;;;;;;;15.00;14.25;;;;;13.16;38.95;100753.28;5076005;28;45677;-78
2023/04/20 11:11:26;;;;;;;;;15.50;14.00;;;;;13.14;39.45;100760.44;5075848;28;46403;-76
2023/04/20 11:14:05;;;;;;;;;14.00;12.25;;;;;13.07;39.19;100772.34;5076806;28;45873;-75
2023/04/20 11:16:30;;;;;;;;;12.00;11.25;;;;;13.02;39.17;100751.69;5077956;28;45550;-77
2023/04/20 11:18:57;;;;;;;;;15.25;12.00;;;;;12.96;39.42;100744.28;5075347;28;45546;-75
2023/04/20 11:21:22;;;;;;;;;15.75;14.75;;;;;12.89;39.61;100743.09;5075538;28;46501;-73
2023/04/20 11:23:49;;;;;;;;;15.25;14.75;;;;;12.85;39.57;100746.91;5073962;28;47194;-73
2023/04/20 11:26:14;;;;;;;;;14.00;11.50;;;;;12.84;39.68;100745.25;5075576;28;45896;-75
2023/04/20 11:28:50;;;;;;;;;18.25;17.75;;;;;12.80;39.82;100741.19;5075623;28;45455;-75
2023/04/20 11:31:19;;;;;;;;;18.00;16.00;;;;;12.73;40.07;100740.00;5075680;28;45652;-77
2023/04/20 11:33:45;;;;;;;;;15.00;14.25;;;;;12.69;40.15;100742.00;5076370;28;46279;-80
2023/04/20 11:39:37;;;;;;;;;13.75;13.50;;;;;12.66;40.32;100737.00;5079762;28;45502;-75
2023/04/20 11:42:03;;;;;;;;;13.75;11.75;;;;;12.63;40.12;100732.81;5080638;28;45679;-73
2023/04/20 11:44:29;;;;;;;;;14.50;13.50;;;;;12.54;40.29;100727.44;5076164;28;46098;-75
2023/04/20 11:46:58;;;;;;;;;17.00;14.00;;;;;12.47;40.63;100739.41;5056541;28;45741;-78
2023/04/20 11:49:25;;;;;;;;;14.00;14.00;;;;;12.41;40.58;100740.69;5074787;28;45683;-80
2023/04/20 11:51:50;;;;;;;;;12.00;12.00;;;;;12.37;40.37;100738.41;5074816;28;45642;-75
2023/04/20 11:54:18;;;;;;;;;13.00;12.75;;;;;12.38;40.60;100724.31;5074882;28;46298;-73
2023/04/20 11:56:44;;;;;;;;;15.00;14.00;;;;;12.42;40.66;100718.69;5074740;28;45999;-76
2023/04/20 11:59:10;;;;;;;;;17.00;17.00;;;;;12.48;40.70;100727.91;5074862;28;45466;-74
2023/04/20 12:01:36;;;;;;;;;19.00;17.00;;;;;12.53;40.58;100713.44;5073871;28;46455;-79
2023/04/20 12:04:03;;;;;;;;;18.50;17.00;;;;;12.62;40.77;100722.44;5074752;28;46319;-82
2023/04/20 12:09:50;;;;;;;;;16.50;14.25;;;;;12.67;40.61;100724.69;5074342;28;45624;-75
2023/04/20 12:12:15;;;;;;;;;16.00;15.00;;;;;12.69;40.61;100723.59;5074244;28;46819;-80
2023/04/20 12:14:40;;;;;;;;;16.00;16.00;;;;;12.67;40.97;100707.13;5074649;28;45654;-74
2023/04/20 12:17:06;;;;;;;;;17.00;15.25;;;;;12.73;40.61;100711.91;5074669;28;45684;-76
2023/04/20 12:19:32;;;;;;;;;15.25;14.25;;;;;12.71;40.73;100718.25;5074408;28;45656;-77
2023/04/20 12:21:57;;;;;;;;;18.00;15.75;;;;;12.74;40.63;100723.28;5074293;28;45604;-77
2023/04/20 12:24:23;;;;;;;;;20.00;16.75;;;;;12.74;40.54;100703.06;5074282;28;45774;-76
2023/04/20 12:26:48;;;;;;;;;22.00;16.00;;;;;12.71;40.81;100690.16;5074656;28;45733;-77
2023/04/20 12:29:13;;;;;;;;;16.25;14.00;;;;;12.79;40.84;100686.94;5074460;28;45665;-74
2023/04/20 12:31:39;;;;;;;;;22.00;16.25;;;;;12.72;40.53;100697.09;5074622;28;45759;-75
2023/04/20 12:34:05;;;;;;;;;26.75;22.00;;;;;12.69;41.02;100686.81;5073001;28;46260;-78
2023/04/20 12:39:52;;;;;;;;;14.00;13.50;;;;;12.84;41.25;100695.31;5073988;28;45634;-77
2023/04/20 12:42:18;;;;;;;;;19.75;19.00;;;;;12.89;41.10;100703.66;5073875;28;46668;-78
2023/04/20 12:44:43;;;;;;;;;21.00;18.00;;;;;12.95;40.58;100700.53;5074152;28;46048;-79
2023/04/20 12:47:09;;;;;;;;;17.50;16.75;;;;;13.00;40.84;100693.13;5074240;28;45679;-75
2023/04/20 12:53:52;;;;;;;;;17.50;16.50;;;;;13.00;40.69;100685.25;5073846;28;46173;-78
2023/04/20 12:56:18;;;;;;;;;19.75;18.50;;;;;13.02;41.36;100704.34;5074196;28;46567;-76
2023/04/20 12:58:45;;;;;;;;;18.75;18.75;;;;;12.95;41.23;100701.38;5073917;28;45593;-79
2023/04/20 13:01:10;;;;;;;;;21.25;17.25;;;;;12.94;41.14;100690.97;5073932;28;45670;-77